Time;durP1;ratioP1;P1;durP2;ratioP2;P2;SDS_P1;SDS_P2;PMS_P1;PMS_P2;Temp;Humidity;BMP_temperature;BMP_pressure;BME280_temperature;BME280_humidity;BME280_pressure;Samples;Min_cycle;Max_cycle;Signal;HPM_P1;HPM_P2
2022/05/21 00:00:06;;;;;;;;;;;23.10;75.60;23.10;100153.00;;;;344429;28;83232;-87
2022/05/21 00:00:21;;;;;;;;;;;23.10;75.40;23.10;100150.00;;;;344153;28;88842;-86
2022/05/21 00:00:33;;;;;;;;;;;23.10;75.50;23.00;100151.00;;;;346810;28;83536;-86
2022/05/21 00:00:45;;;;;;;;;;;23.00;75.50;23.00;100158.00;;;;344107;28;92099;-86
2022/05/21 00:00:57;;;;;;;;;;;23.10;75.60;23.00;100158.00;;;;345941;28;82385;-86
2022/05/21 00:01:08;;;;;;;;;;;23.00;75.80;23.00;100150.00;;;;345311;28;91084;-86
2022/05/21 00:01:20;;;;;;;;;;;23.00;75.80;23.10;100156.00;;;;345925;28;82499;-86
2022/05/21 00:01:32;;;;;;;;;;;23.00;75.60;23.10;100151.00;;;;342212;28;92866;-86
2022/05/21 00:01:44;;;;;;;;;;;23.00;75.40;23.10;100153.00;;;;343190;28;83371;-87
2022/05/21 00:01:56;;;;;;;;;;;23.00;75.40;23.10;100148.00;;;;346926;28;89538;-87
2022/05/21 00:02:07;;;;;;;;;;;23.00;75.40;23.00;100151.00;;;;344482;28;82556;-86
2022/05/21 00:02:19;;;;;;;;;;;23.00;75.50;23.00;100151.00;;;;341384;28;91650;-86
2022/05/21 00:02:31;;;;;;;;;;;23.00;76.20;23.00;100153.00;;;;343270;28;83668;-86
2022/05/21 00:02:43;;;;;;;;;;;23.00;75.70;23.00;100149.00;;;;345477;28;90988;-86
2022/05/21 00:02:55;;;;;;;;;;;23.00;75.80;23.00;100152.00;;;;347289;28;83483;-86
2022/05/21 00:03:08;;;;;;;;;;;23.00;75.70;23.10;100153.00;;;;346958;28;89363;-86
2022/05/21 00:03:19;;;;;;;;;;;23.00;76.20;23.20;100149.00;;;;347373;28;82674;-86
2022/05/21 00:03:31;;;;;;;;;;;23.00;75.50;23.20;100152.00;;;;346937;27;90008;-86
2022/05/21 00:03:43;;;;;;;;;;;23.00;75.50;23.20;100146.00;;;;345732;28;82558;-86
2022/05/21 00:03:55;;;;;;;;;;;23.10;75.50;23.20;100149.00;;;;345480;28;92072;-86
2022/05/21 00:04:06;;;;;;;;;;;23.00;75.30;23.10;100143.00;;;;346051;28;83273;-86
2022/05/21 00:04:18;;;;;;;;;;;23.10;75.90;23.10;100147.00;;;;344122;28;89093;-86
2022/05/21 00:04:30;;;;;;;;;;;23.10;75.30;23.10;100144.00;;;;345984;28;83273;-86
2022/05/21 00:04:42;;;;;;;;;;;23.00;75.20;23.10;100147.00;;;;345529;28;89077;-86
2022/05/21 00:04:54;;;;;;;;;;;23.10;75.30;23.10;100147.00;;;;344476;28;83288;-87
2022/05/21 00:05:06;;;;;;;;;;;23.10;75.30;23.10;100148.00;;;;343844;28;89523;-87
2022/05/21 00:05:19;;;;;;;;;;;23.10;75.40;23.10;100146.00;;;;343274;28;82875;-86
2022/05/21 00:05:33;;;;;;;;;;;23.00;75.50;23.00;100148.00;;;;343955;28;91688;-86
2022/05/21 00:05:44;;;;;;;;;;;23.00;75.70;23.00;100147.00;;;;344597;28;82367;-86
2022/05/21 00:05:57;;;;;;;;;;;23.00;75.70;23.00;100149.00;;;;344139;28;88771;-86
2022/05/21 00:06:08;;;;;;;;;;;23.00;75.80;23.00;100148.00;;;;343076;28;83267;-86
2022/05/21 00:06:21;;;;;;;;;;;23.00;75.80;23.00;100149.00;;;;344028;28;89208;-86
2022/05/21 00:06:33;;;;;;;;;;;23.00;75.80;23.00;100149.00;;;;345494;28;83305;-86
2022/05/21 00:06:44;;;;;;;;;;;23.00;75.80;22.90;100156.00;;;;343923;28;89023;-86
2022/05/21 00:06:57;;;;;;;;;;;23.00;75.80;22.90;100154.00;;;;344589;28;83186;-86
2022/05/21 00:07:10;;;;;;;;;;;23.00;75.90;22.90;100150.00;;;;345326;28;92063;-86
2022/05/21 00:07:22;;;;;;;;;;;23.00;76.00;22.80;100149.00;;;;344372;28;83388;-86
2022/05/21 00:07:34;;;;;;;;;;;23.00;76.00;22.80;100154.00;;;;342115;28;90237;-86
2022/05/21 00:07:46;;;;;;;;;;;22.90;76.00;22.90;100150.00;;;;343306;28;83444;-86
2022/05/21 00:07:57;;;;;;;;;;;22.90;76.00;22.90;100150.00;;;;344100;28;92080;-86
2022/05/21 00:08:09;;;;;;;;;;;22.90;76.00;22.90;100147.00;;;;344514;28;82576;-86
2022/05/21 00:08:21;;;;;;;;;;;22.90;76.00;22.80;100146.00;;;;344112;28;89127;-85
2022/05/21 00:08:34;;;;;;;;;;;22.90;75.90;22.90;100147.00;;;;344603;28;83330;-86
2022/05/21 00:08:46;;;;;;;;;;;22.90;75.90;22.90;100153.00;;;;342709;28;91798;-86
2022/05/21 00:08:58;;;;;;;;;;;22.90;76.00;22.80;100150.00;;;;343082;28;83456;-86
2022/05/21 00:09:09;;;;;;;;;;;22.90;76.00;22.80;100148.00;;;;342747;28;89236;-86
2022/05/21 00:09:21;;;;;;;;;;;22.90;76.00;22.80;100145.00;;;;341861;28;83188;-86
2022/05/21 00:09:33;;;;;;;;;;;22.90;76.00;22.90;100145.00;;;;341238;28;92350;-86
2022/05/21 00:09:45;;;;;;;;;;;22.90;75.90;22.90;100153.00;;;;343077;28;83552;-86
2022/05/21 00:09:56;;;;;;;;;;;22.90;75.90;22.90;100147.00;;;;344173;28;89046;-86
2022/05/21 00:10:09;;;;;;;;;;;22.80;76.00;22.80;100145.00;;;;344429;28;83382;-87
2022/05/21 00:10:22;;;;;;;;;;;22.80;76.00;22.80;100143.00;;;;341430;28;87939;-86
2022/05/21 00:10:34;;;;;;;;;;;22.80;75.90;22.80;100145.00;;;;342080;28;83251;-86
2022/05/21 00:10:46;;;;;;;;;;;22.80;76.00;22.80;100140.00;;;;342723;28;90690;-87
2022/05/21 00:10:57;;;;;;;;;;;22.80;76.00;22.90;100145.00;;;;343042;28;83470;-86
2022/05/21 00:11:09;;;;;;;;;;;22.80;75.80;22.80;100150.00;;;;342717;28;92323;-86
2022/05/21 00:11:21;;;;;;;;;;;22.80;75.80;22.90;100147.00;;;;344458;28;83205;-86
2022/05/21 00:11:32;;;;;;;;;;;22.80;75.80;22.90;100145.00;;;;343752;28;89558;-86
2022/05/21 00:11:44;;;;;;;;;;;22.80;75.70;22.80;100150.00;;;;344515;28;83294;-86
2022/05/21 00:11:56;;;;;;;;;;;22.80;76.00;22.80;100139.00;;;;342792;28;89551;-86
2022/05/21 00:12:08;;;;;;;;;;;22.80;76.00;22.80;100143.00;;;;341875;28;83365;-86
2022/05/21 00:12:20;;;;;;;;;;;22.80;75.90;22.80;100142.00;;;;342678;28;91182;-86
2022/05/21 00:12:31;;;;;;;;;;;22.80;76.00;22.80;100145.00;;;;343406;28;82209;-86
2022/05/21 00:12:44;;;;;;;;;;;22.80;76.00;22.80;100136.00;;;;343868;28;91062;-86
2022/05/21 00:12:56;;;;;;;;;;;22.80;76.00;22.80;100142.00;;;;343086;28;83335;-86
2022/05/21 00:13:07;;;;;;;;;;;22.80;75.80;22.90;100149.00;;;;343943;28;92262;-86
2022/05/21 00:13:19;;;;;;;;;;;22.80;75.70;23.00;100143.00;;;;344540;28;82389;-86
2022/05/21 00:13:31;;;;;;;;;;;22.80;75.90;22.90;100147.00;;;;342434;28;90072;-86
2022/05/21 00:13:44;;;;;;;;;;;22.80;76.00;22.90;100150.00;;;;343128;28;82330;-86
2022/05/21 00:13:56;;;;;;;;;;;22.80;76.00;23.00;100151.00;;;;342873;28;88615;-86
2022/05/21 00:14:08;;;;;;;;;;;22.90;75.90;23.00;100145.00;;;;344519;28;83338;-86
2022/05/21 00:14:20;;;;;;;;;;;22.80;76.00;23.00;100146.00;;;;344151;28;89069;-86
2022/05/21 00:14:34;;;;;;;;;;;22.80;76.00;23.00;100148.00;;;;344528;28;83371;-86
2022/05/21 00:14:46;;;;;;;;;;;22.90;76.10;23.00;100147.00;;;;344045;28;92476;-87
2022/05/21 00:14:57;;;;;;;;;;;22.80;75.90;22.90;100147.00;;;;344608;28;83379;-86
2022/05/21 00:15:11;;;;;;;;;;;22.80;76.00;22.90;100153.00;;;;344274;28;88755;-87
2022/05/21 00:15:24;;;;;;;;;;;22.80;76.00;22.90;100152.00;;;;344527;28;83187;-86
2022/05/21 00:15:36;;;;;;;;;;;22.80;75.90;22.90;100150.00;;;;344400;28;91263;-86
2022/05/21 00:15:48;;;;;;;;;;;22.90;75.80;23.00;100153.00;;;;344492;28;82509;-86
2022/05/21 00:15:59;;;;;;;;;;;22.80;75.90;22.80;100153.00;;;;345391;28;90645;-86
2022/05/21 00:16:11;;;;;;;;;;;22.80;76.20;22.90;100155.00;;;;345533;28;83447;-86
2022/05/21 00:16:23;;;;;;;;;;;22.80;76.10;22.90;100148.00;;;;345510;28;88762;-86
2022/05/21 00:16:35;;;;;;;;;;;22.80;76.10;22.80;100147.00;;;;344871;28;83521;-86
2022/05/21 00:16:47;;;;;;;;;;;22.80;76.30;22.90;100155.00;;;;345432;28;92279;-86
2022/05/21 00:16:59;;;;;;;;;;;22.80;76.00;22.80;100154.00;;;;344604;28;83437;-86
2022/05/21 00:17:11;;;;;;;;;;;22.80;76.00;22.80;100151.00;;;;344076;28;90844;-86
2022/05/21 00:17:23;;;;;;;;;;;22.80;76.10;22.90;100147.00;;;;344491;28;83359;-86
2022/05/21 00:17:34;;;;;;;;;;;22.80;76.00;22.90;100147.00;;;;343850;28;91668;-87
2022/05/21 00:17:46;;;;;;;;;;;22.80;76.00;22.80;100147.00;;;;344717;28;82358;-86
2022/05/21 00:17:58;;;;;;;;;;;22.80;76.00;22.90;100144.00;;;;344030;28;92772;-86
2022/05/21 00:18:10;;;;;;;;;;;22.80;75.90;23.00;100152.00;;;;344535;28;83444;-86
2022/05/21 00:18:21;;;;;;;;;;;22.80;76.00;22.90;100148.00;;;;344125;28;88918;-86
2022/05/21 00:18:33;;;;;;;;;;;22.80;76.20;22.90;100153.00;;;;343027;28;83668;-86
2022/05/21 00:18:45;;;;;;;;;;;22.80;76.30;23.00;100150.00;;;;345338;28;89963;-86
2022/05/21 00:18:57;;;;;;;;;;;22.80;76.20;23.00;100151.00;;;;345950;28;83423;-86
2022/05/21 00:19:08;;;;;;;;;;;22.80;76.20;22.90;100158.00;;;;344095;28;89336;-86
2022/05/21 00:19:20;;;;;;;;;;;22.80;76.20;22.90;100150.00;;;;343200;28;82410;-86
2022/05/21 00:19:32;;;;;;;;;;;22.80;76.30;22.90;100154.00;;;;342317;28;91397;-86
2022/05/21 00:19:43;;;;;;;;;;;22.80;76.20;22.90;100155.00;;;;343130;28;83512;-86
2022/05/21 00:19:55;;;;;;;;;;;22.80;76.20;22.80;100159.00;;;;342619;28;90989;-86
2022/05/21 00:20:47;;;;;;;;;;;22.80;76.30;22.80;100153.00;;;;342886;28;83244;-86
2022/05/21 00:20:48;;;;;;;;;;;22.80;76.30;22.80;100158.00;;;;342816;28;88271;-87
2022/05/21 00:21:01;;;;;;;;;;;22.80;76.40;22.80;100160.00;;;;343197;28;83487;-87
2022/05/21 00:21:12;;;;;;;;;;;22.80;76.20;22.90;100160.00;;;;342733;28;92419;-86
2022/05/21 00:21:24;;;;;;;;;;;22.80;76.30;22.90;100157.00;;;;343130;28;83451;-86
2022/05/21 00:21:36;;;;;;;;;;;22.80;76.30;22.90;100151.00;;;;343318;28;89197;-86
2022/05/21 00:21:48;;;;;;;;;;;22.80;76.20;22.80;100152.00;;;;343135;28;82458;-86
2022/05/21 00:22:00;;;;;;;;;;;22.80;76.30;22.70;100150.00;;;;342626;28;91699;-86
2022/05/21 00:22:11;;;;;;;;;;;22.80;76.40;22.80;100152.00;;;;344574;28;82195;-86
2022/05/21 00:22:23;;;;;;;;;;;22.80;76.40;22.70;100147.00;;;;342823;28;88812;-87
2022/05/21 00:22:35;;;;;;;;;;;22.80;76.30;22.80;100150.00;;;;343032;28;83434;-86
2022/05/21 00:22:47;;;;;;;;;;;22.80;76.30;22.80;100160.00;;;;344117;28;89299;-86
2022/05/21 00:23:09;;;;;;;;;;;22.80;76.30;22.70;100158.00;;;;344534;28;83229;-86
2022/05/21 00:23:24;;;;;;;;;;;22.80;76.40;22.70;100155.00;;;;342720;28;90364;-86
2022/05/21 00:23:36;;;;;;;;;;;22.80;76.50;22.80;100153.00;;;;343089;28;83426;-86
2022/05/21 00:23:47;;;;;;;;;;;22.80;76.40;22.80;100155.00;;;;342753;28;89146;-86
2022/05/21 00:23:59;;;;;;;;;;;22.80;76.40;22.80;100155.00;;;;342919;28;83379;-86
2022/05/21 00:24:11;;;;;;;;;;;22.80;76.40;22.70;100161.00;;;;342641;28;90391;-86
2022/05/21 00:24:23;;;;;;;;;;;22.80;76.30;22.80;100156.00;;;;343203;28;83380;-86
2022/05/21 00:24:34;;;;;;;;;;;22.70;76.20;22.80;100154.00;;;;344400;28;89483;-86
2022/05/21 00:24:46;;;;;;;;;;;22.80;76.20;22.80;100154.00;;;;346313;28;83334;-86
2022/05/21 00:24:58;;;;;;;;;;;22.70;76.40;22.90;100157.00;;;;345501;28;88909;-86
2022/05/21 00:25:09;;;;;;;;;;;22.80;76.40;22.90;100160.00;;;;344510;28;83174;-86
2022/05/21 00:25:21;;;;;;;;;;;22.80;76.30;22.90;100160.00;;;;342752;28;88862;-86
2022/05/21 00:25:33;;;;;;;;;;;22.80;76.40;22.90;100157.00;;;;344369;28;83353;-86
2022/05/21 00:25:46;;;;;;;;;;;22.80;76.20;22.90;100158.00;;;;345565;28;92171;-86
2022/05/21 00:26:08;;;;;;;;;;;22.80;76.10;22.90;100161.00;;;;345847;28;83286;-86
2022/05/21 00:26:20;;;;;;;;;;;22.80;76.20;22.90;100163.00;;;;345073;28;88739;-86
2022/05/21 00:26:32;;;;;;;;;;;22.80;76.00;22.90;100163.00;;;;344473;28;82458;-87
2022/05/21 00:26:44;;;;;;;;;;;22.80;76.60;22.90;100153.00;;;;345431;28;92411;-86
2022/05/21 00:26:55;;;;;;;;;;;22.80;75.90;22.90;100162.00;;;;344481;28;83391;-86
2022/05/21 00:27:07;;;;;;;;;;;22.80;76.00;22.90;100157.00;;;;344105;28;90757;-86
2022/05/21 00:27:19;;;;;;;;;;;22.80;76.10;23.00;100166.00;;;;344601;28;83238;-86
2022/05/21 00:27:31;;;;;;;;;;;22.80;76.30;23.00;100156.00;;;;345038;28;89377;-86
2022/05/21 00:27:42;;;;;;;;;;;22.80;76.20;22.90;100146.00;;;;345729;28;83506;-86
2022/05/21 00:27:54;;;;;;;;;;;22.80;76.10;22.90;100161.00;;;;345561;28;89055;-86
2022/05/21 00:28:06;;;;;;;;;;;22.80;76.20;22.90;100158.00;;;;344836;28;83282;-87
2022/05/21 00:28:18;;;;;;;;;;;22.80;76.00;22.90;100157.00;;;;345319;28;93022;-86
2022/05/21 00:28:30;;;;;;;;;;;22.80;76.00;22.90;100152.00;;;;343199;28;83501;-86
2022/05/21 00:28:43;;;;;;;;;;;22.80;75.90;22.90;100154.00;;;;344015;28;92694;-86
2022/05/21 00:28:54;;;;;;;;;;;22.80;75.90;23.00;100158.00;;;;345889;28;82570;-86
2022/05/21 00:29:06;;;;;;;;;;;22.80;76.10;23.00;100160.00;;;;345621;28;91948;-87
2022/05/21 00:29:20;;;;;;;;;;;22.80;76.20;23.00;100160.00;;;;347315;28;82324;-86
2022/05/21 00:29:32;;;;;;;;;;;22.80;76.20;23.00;100158.00;;;;344044;28;88949;-87
2022/05/21 00:29:44;;;;;;;;;;;22.80;76.20;23.00;100159.00;;;;343108;28;82443;-86
2022/05/21 00:29:55;;;;;;;;;;;22.80;76.20;22.90;100154.00;;;;342369;28;92251;-86
2022/05/21 00:30:08;;;;;;;;;;;22.80;76.30;22.90;100155.00;;;;343221;28;83334;-86
2022/05/21 00:30:19;;;;;;;;;;;22.80;76.40;22.90;100158.00;;;;344040;28;89827;-86
2022/05/21 00:30:32;;;;;;;;;;;22.80;76.40;22.90;100154.00;;;;342476;28;83362;-86
2022/05/21 00:30:44;;;;;;;;;;;22.80;76.30;22.80;100155.00;;;;342472;28;89071;-86
2022/05/21 00:30:56;;;;;;;;;;;22.80;76.30;22.90;100163.00;;;;341801;28;83491;-86
2022/05/21 00:31:09;;;;;;;;;;;22.80;76.40;22.90;100156.00;;;;344124;28;89233;-86
2022/05/21 00:31:21;;;;;;;;;;;22.80;76.30;22.90;100159.00;;;;345888;28;82547;-86
2022/05/21 00:31:33;;;;;;;;;;;22.80;76.10;22.90;100157.00;;;;345304;28;90954;-87
2022/05/21 00:31:44;;;;;;;;;;;22.80;76.00;22.90;100158.00;;;;345856;28;83531;-86
2022/05/21 00:31:56;;;;;;;;;;;22.80;76.10;22.90;100160.00;;;;345437;28;91833;-87
2022/05/21 00:32:08;;;;;;;;;;;22.80;76.30;22.80;100160.00;;;;345854;28;83359;-87
2022/05/21 00:32:20;;;;;;;;;;;22.80;76.40;22.90;100161.00;;;;343899;28;93647;-86
2022/05/21 00:32:31;;;;;;;;;;;22.80;76.30;22.90;100154.00;;;;347250;28;82264;-86
2022/05/21 00:32:44;;;;;;;;;;;22.80;76.90;22.90;100160.00;;;;345335;28;92089;-86
2022/05/21 00:32:55;;;;;;;;;;;22.80;76.30;22.90;100161.00;;;;345885;28;83571;-86
2022/05/21 00:33:07;;;;;;;;;;;22.80;76.40;22.90;100159.00;;;;344190;28;88949;-86
2022/05/21 00:33:19;;;;;;;;;;;22.80;76.30;22.90;100158.00;;;;343221;28;83448;-86
2022/05/21 00:33:31;;;;;;;;;;;22.80;76.40;22.90;100160.00;;;;343660;28;90772;-86
2022/05/21 00:33:43;;;;;;;;;;;22.80;76.30;22.90;100153.00;;;;343063;28;83263;-86
2022/05/21 00:33:55;;;;;;;;;;;22.80;76.20;22.90;100157.00;;;;342858;28;87941;-86
2022/05/21 00:34:06;;;;;;;;;;;22.80;76.10;22.90;100152.00;;;;343078;28;83431;-86
2022/05/21 00:34:18;;;;;;;;;;;22.80;76.30;22.80;100155.00;;;;344345;28;89090;-86
2022/05/21 00:34:30;;;;;;;;;;;22.80;76.40;22.80;100152.00;;;;344622;28;82628;-86
2022/05/21 00:34:42;;;;;;;;;;;22.80;76.50;22.80;100158.00;;;;346881;28;89779;-86
2022/05/21 00:34:53;;;;;;;;;;;22.80;76.50;22.80;100153.00;;;;348776;27;83307;-86
2022/05/21 00:35:06;;;;;;;;;;;22.80;76.40;22.80;100155.00;;;;348421;27;88800;-86
2022/05/21 00:35:18;;;;;;;;;;;22.80;76.40;22.70;100157.00;;;;348808;27;83386;-86
2022/05/21 00:35:29;;;;;;;;;;;22.80;76.40;22.80;100153.00;;;;348207;27;91638;-87
2022/05/21 00:35:41;;;;;;;;;;;22.70;76.30;22.70;100155.00;;;;348682;27;82284;-86
2022/05/21 00:35:53;;;;;;;;;;;22.70;76.50;22.70;100158.00;;;;345598;28;88628;-86
2022/05/21 00:36:05;;;;;;;;;;;22.70;76.60;22.80;100152.00;;;;344479;28;82698;-87
2022/05/21 00:36:17;;;;;;;;;;;22.70;76.40;22.80;100162.00;;;;347900;27;91696;-86
2022/05/21 00:36:29;;;;;;;;;;;22.70;76.30;22.70;100151.00;;;;344457;28;82634;-86
2022/05/21 00:36:41;;;;;;;;;;;22.70;76.40;22.70;100166.00;;;;345358;28;89925;-87
2022/05/21 00:36:53;;;;;;;;;;;22.70;76.50;22.60;100162.00;;;;347226;28;83311;-86
2022/05/21 00:37:05;;;;;;;;;;;22.70;76.60;22.70;100157.00;;;;346852;28;92228;-86
2022/05/21 00:37:16;;;;;;;;;;;22.70;76.50;22.60;100155.00;;;;347391;28;83326;-86
2022/05/21 00:37:28;;;;;;;;;;;22.60;76.60;22.60;100160.00;;;;346805;28;90286;-86
2022/05/21 00:37:40;;;;;;;;;;;22.60;76.50;22.60;100155.00;;;;348512;27;83279;-86
2022/05/21 00:37:52;;;;;;;;;;;22.60;76.50;22.60;100161.00;;;;348371;27;89237;-87
2022/05/21 00:38:03;;;;;;;;;;;22.60;76.40;22.60;100161.00;;;;347384;28;82399;-86
2022/05/21 00:38:15;;;;;;;;;;;22.60;76.50;22.60;100165.00;;;;346866;27;90020;-86
2022/05/21 00:38:27;;;;;;;;;;;22.60;76.40;22.70;100155.00;;;;347357;28;83301;-87
2022/05/21 00:38:39;;;;;;;;;;;22.60;76.40;22.70;100157.00;;;;346880;28;87981;-86
2022/05/21 00:38:51;;;;;;;;;;;22.60;76.40;22.60;100158.00;;;;347103;28;83581;-86
2022/05/21 00:39:03;;;;;;;;;;;22.60;76.50;22.60;100155.00;;;;346741;28;89522;-87
2022/05/21 00:39:14;;;;;;;;;;;22.60;76.50;22.60;100160.00;;;;348747;27;83298;-86
2022/05/21 00:39:26;;;;;;;;;;;22.60;76.60;22.60;100159.00;;;;348274;27;89370;-87
2022/05/21 00:39:38;;;;;;;;;;;22.70;76.60;22.60;100157.00;;;;349550;27;84571;-86
2022/05/21 00:39:49;;;;;;;;;;;22.60;76.50;22.60;100160.00;;;;347776;27;89191;-87
2022/05/21 00:40:01;;;;;;;;;;;22.60;76.40;22.60;100158.00;;;;348357;27;83269;-86
2022/05/21 00:40:13;;;;;;;;;;;22.60;76.40;22.60;100161.00;;;;345460;28;90174;-87
2022/05/21 00:40:25;;;;;;;;;;;22.60;76.50;22.60;100161.00;;;;347417;28;82421;-86
2022/05/21 00:40:37;;;;;;;;;;;22.60;76.40;22.60;100166.00;;;;345454;28;88081;-86
2022/05/21 00:40:49;;;;;;;;;;;22.60;76.50;22.50;100162.00;;;;347258;28;83450;-86
2022/05/21 00:41:01;;;;;;;;;;;22.60;76.70;22.70;100162.00;;;;347026;28;88235;-86
2022/05/21 00:41:14;;;;;;;;;;;22.60;76.60;22.70;100155.00;;;;345871;28;83336;-87
2022/05/21 00:41:25;;;;;;;;;;;22.60;76.50;22.70;100158.00;;;;346873;28;90545;-86
2022/05/21 00:41:39;;;;;;;;;;;22.60;76.30;22.60;100158.00;;;;345708;28;82452;-87
2022/05/21 00:41:50;;;;;;;;;;;22.60;76.30;22.70;100162.00;;;;345524;28;90609;-86
2022/05/21 00:42:08;;;;;;;;;;;22.60;76.60;22.60;100165.00;;;;345987;28;83341;-86
2022/05/21 00:42:20;;;;;;;;;;;22.60;76.50;22.60;100157.00;;;;346795;28;93505;-86
2022/05/21 00:42:31;;;;;;;;;;;22.60;76.60;22.60;100154.00;;;;347532;27;83279;-86
2022/05/21 00:42:44;;;;;;;;;;;22.60;76.80;22.50;100155.00;;;;348032;27;88751;-87
2022/05/21 00:42:56;;;;;;;;;;;22.60;76.80;22.50;100158.00;;;;347254;28;83441;-86
2022/05/21 00:43:38;;;;;;;;;;;22.60;76.80;22.60;100160.00;;;;345439;28;92253;-86
2022/05/21 00:43:52;;;;;;;;;;;22.50;76.80;22.70;100164.00;;;;345516;28;83276;-87
2022/05/21 00:44:04;;;;;;;;;;;22.50;76.80;22.80;100153.00;;;;344201;28;89264;-86
2022/05/21 00:44:16;;;;;;;;;;;22.50;76.80;22.80;100156.00;;;;343087;28;84011;-86
2022/05/21 00:44:27;;;;;;;;;;;22.60;76.90;22.80;100151.00;;;;344669;28;89031;-86
2022/05/21 00:44:39;;;;;;;;;;;22.60;77.00;22.80;100152.00;;;;345939;28;83182;-86
2022/05/21 00:44:51;;;;;;;;;;;22.60;76.90;22.80;100150.00;;;;345540;28;91212;-86
2022/05/21 00:45:03;;;;;;;;;;;22.60;76.80;22.80;100151.00;;;;347701;27;82303;-86
2022/05/21 00:45:15;;;;;;;;;;;22.60;76.70;22.80;100155.00;;;;346884;28;90539;-86
2022/05/21 00:45:26;;;;;;;;;;;22.60;76.70;22.80;100154.00;;;;348703;27;83221;-86
2022/05/21 00:45:38;;;;;;;;;;;22.60;76.80;22.70;100153.00;;;;346426;28;92529;-86
2022/05/21 00:45:50;;;;;;;;;;;22.60;77.10;22.70;100151.00;;;;347235;28;83878;-86
2022/05/21 00:46:03;;;;;;;;;;;22.60;77.00;22.60;100154.00;;;;345396;28;90437;-86
2022/05/21 00:46:27;;;;;;;;;;;22.60;76.90;22.60;100152.00;;;;345840;28;83450;-86
2022/05/21 00:46:41;;;;;;;;;;;22.60;77.00;22.50;100156.00;;;;345215;28;89136;-86
2022/05/21 00:46:53;;;;;;;;;;;22.60;77.10;22.60;100159.00;;;;345904;28;83398;-86
2022/05/21 00:47:05;;;;;;;;;;;22.60;77.00;22.70;100156.00;;;;345170;28;93492;-86
2022/05/21 00:47:17;;;;;;;;;;;22.60;76.90;22.70;100157.00;;;;346063;28;82368;-86
2022/05/21 00:47:28;;;;;;;;;;;22.60;76.90;22.70;100150.00;;;;345379;28;92343;-86
2022/05/21 00:47:40;;;;;;;;;;;22.60;76.90;22.70;100155.00;;;;345897;28;83182;-87
2022/05/21 00:47:52;;;;;;;;;;;22.60;77.30;22.60;100152.00;;;;345605;28;88771;-87
2022/05/21 00:48:04;;;;;;;;;;;22.60;77.70;22.60;100152.00;;;;346009;28;83121;-86
2022/05/21 00:48:15;;;;;;;;;;;22.50;77.70;22.60;100152.00;;;;345513;28;88884;-86
2022/05/21 00:48:27;;;;;;;;;;;22.60;77.70;22.50;100150.00;;;;346019;28;82267;-86
2022/05/21 00:48:39;;;;;;;;;;;22.50;77.40;22.50;100155.00;;;;343758;28;92465;-87
2022/05/21 00:48:53;;;;;;;;;;;22.50;77.60;22.50;100158.00;;;;345771;28;83547;-87
2022/05/21 00:49:09;;;;;;;;;;;22.50;77.50;22.60;100155.00;;;;346880;28;89060;-87
2022/05/21 00:49:25;;;;;;;;;;;22.50;77.50;22.60;100156.00;;;;347296;28;82367;-86
2022/05/21 00:49:39;;;;;;;;;;;22.50;77.30;22.60;100155.00;;;;345813;28;92293;-86
2022/05/21 00:49:51;;;;;;;;;;;22.50;77.50;22.50;100159.00;;;;345876;28;83419;-86
2022/05/21 00:50:03;;;;;;;;;;;22.50;77.50;22.50;100160.00;;;;346930;28;87646;-86
2022/05/21 00:50:16;;;;;;;;;;;22.50;77.50;22.50;100158.00;;;;345905;28;83386;-86
2022/05/21 00:50:29;;;;;;;;;;;22.50;77.50;22.50;100157.00;;;;344075;28;92244;-86
2022/05/21 00:50:40;;;;;;;;;;;22.50;77.40;22.60;100154.00;;;;345882;28;83308;-86
2022/05/21 00:50:52;;;;;;;;;;;22.50;77.20;22.60;100159.00;;;;345542;28;88541;-86
2022/05/21 00:51:04;;;;;;;;;;;22.50;77.10;22.60;100159.00;;;;345971;28;83356;-86
2022/05/21 00:51:20;;;;;;;;;;;22.50;77.40;22.60;100160.00;;;;345522;28;89714;-86
2022/05/21 00:51:33;;;;;;;;;;;22.50;77.40;22.60;100152.00;;;;344650;28;83572;-86
2022/05/21 00:51:50;;;;;;;;;;;22.50;77.60;22.60;100155.00;;;;345701;28;88663;-86
2022/05/21 00:52:05;;;;;;;;;;;22.50;77.80;22.50;100156.00;;;;347260;28;82296;-86
2022/05/21 00:52:18;;;;;;;;;;;22.50;77.60;22.50;100149.00;;;;346896;28;89129;-86
2022/05/21 00:52:30;;;;;;;;;;;22.50;77.70;22.60;100156.00;;;;345896;28;83244;-86
2022/05/21 00:52:43;;;;;;;;;;;22.50;77.60;22.60;100156.00;;;;344092;28;90671;-86
2022/05/21 00:52:54;;;;;;;;;;;22.50;77.50;22.60;100151.00;;;;343153;28;82452;-86
2022/05/21 00:53:06;;;;;;;;;;;22.50;77.40;22.70;100147.00;;;;345612;28;89477;-86
2022/05/21 00:53:19;;;;;;;;;;;22.50;77.50;22.80;100154.00;;;;345998;28;83140;-86
2022/05/21 00:53:31;;;;;;;;;;;22.50;77.60;22.80;100151.00;;;;346833;28;90361;-86
2022/05/21 00:53:43;;;;;;;;;;;22.50;77.70;22.80;100149.00;;;;345981;28;83403;-86
2022/05/21 00:53:55;;;;;;;;;;;22.50;77.60;22.80;100153.00;;;;345490;28;89574;-87
2022/05/21 00:54:07;;;;;;;;;;;22.50;77.50;22.90;100156.00;;;;345951;28;83480;-86
2022/05/21 00:54:21;;;;;;;;;;;22.50;77.50;22.80;100143.00;;;;346595;28;89234;-86
2022/05/21 00:54:35;;;;;;;;;;;22.60;77.50;22.80;100156.00;;;;346918;28;83367;-86
2022/05/21 00:54:52;;;;;;;;;;;22.60;77.40;22.90;100154.00;;;;344574;28;89558;-86
2022/05/21 00:55:15;;;;;;;;;;;22.60;77.40;22.70;100157.00;;;;345844;28;83187;-87
2022/05/21 00:55:29;;;;;;;;;;;22.60;77.60;22.70;100163.00;;;;345513;28;88866;-86
2022/05/21 00:55:41;;;;;;;;;;;22.60;77.40;22.80;100155.00;;;;345910;28;83540;-86
2022/05/21 00:55:52;;;;;;;;;;;22.60;77.40;22.80;100158.00;;;;345452;28;88871;-86
2022/05/21 00:56:05;;;;;;;;;;;22.60;77.40;22.90;100149.00;;;;345927;28;83313;-86
2022/05/21 00:56:16;;;;;;;;;;;22.60;77.50;22.80;100147.00;;;;345538;28;88694;-87
2022/05/21 00:56:29;;;;;;;;;;;22.60;77.30;22.80;100153.00;;;;345666;28;82533;-86
2022/05/21 00:56:45;;;;;;;;;;;22.60;77.20;22.90;100150.00;;;;345466;28;89514;-86
2022/05/21 00:57:09;;;;;;;;;;;22.60;77.30;22.70;100150.00;;;;344522;28;83533;-86
2022/05/21 00:57:27;;;;;;;;;;;22.60;77.10;22.70;100154.00;;;;345605;28;89069;-86
2022/05/21 00:57:41;;;;;;;;;;;22.60;77.70;22.70;100147.00;;;;345490;28;83571;-86
2022/05/21 00:59:47;;;;;;;;;;;22.50;77.80;22.70;100147.00;;;;346814;28;89069;-86
2022/05/21 01:00:21;;;;;;;;;;;22.50;77.60;22.60;100154.00;;;;345516;28;89370;-86
2022/05/21 01:00:33;;;;;;;;;;;22.50;77.90;22.50;100157.00;;;;346549;27;82299;-86
2022/05/21 01:00:44;;;;;;;;;;;22.50;78.10;22.60;100145.00;;;;346807;28;89126;-86
2022/05/21 01:00:56;;;;;;;;;;;22.50;77.90;22.60;100155.00;;;;348623;27;82407;-86
2022/05/21 01:01:08;;;;;;;;;;;22.50;77.80;22.50;100158.00;;;;346749;28;90706;-86
2022/05/21 01:01:20;;;;;;;;;;;22.50;78.30;22.50;100148.00;;;;345970;28;83414;-86
2022/05/21 01:01:34;;;;;;;;;;;22.50;78.20;22.50;100147.00;;;;344026;28;90438;-86
2022/05/21 01:01:49;;;;;;;;;;;22.50;78.30;22.40;100148.00;;;;346001;28;83368;-86
2022/05/21 01:02:02;;;;;;;;;;;22.40;78.30;22.50;100155.00;;;;345505;28;89361;-86
2022/05/21 01:02:34;;;;;;;;;;;22.40;78.10;22.50;100154.00;;;;345770;28;82612;-86
2022/05/21 01:02:51;;;;;;;;;;;22.40;77.90;22.50;100154.00;;;;345544;28;89348;-87
2022/05/21 01:03:02;;;;;;;;;;;22.40;77.60;22.60;100152.00;;;;345975;28;83502;-86
2022/05/21 01:03:15;;;;;;;;;;;22.40;77.60;22.60;100158.00;;;;345550;28;89249;-86
2022/05/21 01:03:28;;;;;;;;;;;22.40;77.50;22.60;100150.00;;;;345904;28;83104;-86
2022/05/21 01:03:40;;;;;;;;;;;22.40;77.50;22.50;100144.00;;;;345079;28;92207;-86
2022/05/21 01:03:51;;;;;;;;;;;22.40;77.60;22.50;100153.00;;;;347249;28;83248;-86
2022/05/21 01:04:03;;;;;;;;;;;22.40;77.50;22.50;100152.00;;;;345458;28;88930;-86